Terminal Aerodrome Forecast
Issued by NWS Jackson, KY

Home | Current Version | Previous Version | Text Only | Print | Product List | Glossary On
Versions: 1 2 3 4 5 6 7 8 9 10 11 12 13 14
000
FTUS43 KJKL 221129
TAFLOZ
TAF
KLOZ 221129Z 2212/2312 17006KT P6SM SCT100 WS020/18040KT
     FM221500 17010G18KT P6SM FEW250
     FM221800 18014G27KT P6SM VCSH OVC090
     FM222100 18014G25KT 3SM -SHRA VCTS OVC030CB
     FM222300 18015G24KT 3SM -SHRA OVC030
     FM230500 23011G21KT P6SM VCSH BKN060=

USA.gov is the U.S. government's official web portal to all federal, state and local government web resources and services.